S 386 Casilo — OZZP — position and weather

sailwx.info

Track history (hours):
 
Tides and Currents Weather Stations Pressure Air Temp Water Temp Dewpoint Dewpoint Depression Visibility Wind Speed Wind Dir Waves Ship Positions

S 386 Casilo

Last reported at 2017-Oct-22 22:35 UTC. Time now 2017-Oct-22 23:11 UTC.
Position N 58°36' E 010°29'.

Length 24 m.

Type: Fishing. MMSI: 219948000.

Date/timePositionNaut miles runAvg speedWind from/ knotsBaromVisibWave heightAir tempDewpointWater temp
2017-Oct-22 22:35N 58°36' E 010°29'0 6.2
2017-Oct-22 22:30N 58°36' E 010°29'3 6.2
2017-Oct-22 22:00N 58°39' E 010°26'3 5.9
2017-Oct-22 21:30N 58°41' E 010°22'3 5.4
2017-Oct-22 21:00N 58°43' E 010°19'3 5.3
2017-Oct-22 20:31N 58°45' E 010°16'1 1.9
2017-Oct-22 19:52N 58°45' E 010°18'0 0.8
2017-Oct-22 19:30N 58°45' E 010°18'1 1.9
2017-Oct-22 19:00N 58°44' E 010°19'1 2.1
2017-Oct-22 18:30N 58°43' E 010°20'1 2.1
2017-Oct-22 18:00N 58°42' E 010°21'1 2.0
2017-Oct-22 17:30N 58°41' E 010°21'1 2.1
2017-Oct-22 17:00N 58°40' E 010°22'1 2.1
2017-Oct-22 16:30N 58°39' E 010°23'1 2.1
2017-Oct-22 16:00N 58°38' E 010°24'1 2.1
2017-Oct-22 15:30N 58°37' E 010°25'1 2.0
2017-Oct-22 14:58N 58°36' E 010°26'1 2.0
2017-Oct-22 14:23N 58°35' E 010°27'1 2.0
2017-Oct-22 13:49N 58°34' E 010°29'1 2.0
2017-Oct-22 13:20N 58°34' E 010°30'1 2.0
2017-Oct-22 12:55N 58°33' E 010°30'2 2.4
2017-Oct-22 12:14N 58°32' E 010°32'4 4.0
2017-Oct-22 11:14N 58°35' E 010°28'2 6.7
2017-Oct-22 10:57N 58°36' E 010°25'3 6.8
2017-Oct-22 10:30N 58°38' E 010°21'4 6.9
2017-Oct-22 09:59N 58°41' E 010°17'3 7.0
2017-Oct-22 09:30N 58°43' E 010°12'3 6.8
2017-Oct-22 09:00N 58°46' E 010°09'3 6.7
2017-Oct-22 08:30N 58°49' E 010°05'2 3.9
2017-Oct-22 08:00N 58°51' E 010°03'1 1.9
2017-Oct-22 07:30N 58°50' E 010°05'1 1.2
2017-Oct-22 07:00N 58°50' E 010°06'1 1.9
2017-Oct-22 06:30N 58°49' E 010°07'1 1.9
2017-Oct-22 06:00N 58°49' E 010°09'1 1.9
2017-Oct-22 05:30N 58°48' E 010°10'1 1.9
2017-Oct-22 05:00N 58°47' E 010°11'1 1.9
2017-Oct-22 04:30N 58°47' E 010°12'1 2.1
2017-Oct-22 04:00N 58°46' E 010°14'1 2.2
2017-Oct-22 03:30N 58°45' E 010°16'1 2.2
2017-Oct-22 03:00N 58°45' E 010°17'1 2.2
2017-Oct-22 02:30N 58°44' E 010°19'1 2.2
2017-Oct-22 02:00N 58°43' E 010°19'1 3.0
2017-Oct-22 01:30N 58°41' E 010°21'1 1.9
2017-Oct-22 01:00N 58°42' E 010°19'3 6.8
2017-Oct-22 00:30N 58°39' E 010°16'54 1.9
2017-Oct-20 20:19N 57°47' E 010°45'3 8.0
2017-Oct-20 20:00N 57°44' E 010°45'4 8.6
2017-Oct-20 19:29N 57°43' E 010°37'1 1.1
2017-Oct-20 18:47N 57°43' E 010°36'0 0.0
2017-Oct-20 18:27N 57°43' E 010°36'0 0.1
2017-Oct-20 18:00N 57°43' E 010°36'0 0.1
2017-Oct-20 15:32N 57°43' E 010°35'0 0.0
2017-Oct-20 15:22N 57°43' E 010°35'0 0.0
2017-Oct-20 14:54N 57°43' E 010°35'0 0.0
2017-Oct-20 14:30N 57°43' E 010°35'0 0.0
2017-Oct-20 13:21N 57°43' E 010°35'0 0.0
2017-Oct-20 12:59N 57°43' E 010°35'0 0.0
2017-Oct-20 12:26N 57°43' E 010°35'0 0.0
2017-Oct-20 11:32N 57°43' E 010°35'0 0.0
2017-Oct-20 11:29N 57°43' E 010°35'0 0.0
2017-Oct-20 10:59N 57°43' E 010°35'0 0.0
2017-Oct-20 10:30N 57°43' E 010°35'0 0.0
2017-Oct-20 10:00N 57°43' E 010°35'0 0.0
2017-Oct-20 09:30N 57°43' E 010°35'0 0.0
2017-Oct-20 08:44N 57°43' E 010°35'0 0.0
2017-Oct-20 08:30N 57°43' E 010°35'0 0.0
2017-Oct-20 08:00N 57°43' E 010°35'0 0.0
2017-Oct-20 07:30N 57°43' E 010°35'0 0.0
2017-Oct-20 06:57N 57°43' E 010°35'0 0.0
2017-Oct-20 06:29N 57°43' E 010°35'0 0.0
2017-Oct-20 05:55N 57°43' E 010°35'0 0.0
2017-Oct-20 05:29N 57°43' E 010°35'0 0.0
2017-Oct-20 04:58N 57°43' E 010°35'0 0.0
2017-Oct-20 04:30N 57°43' E 010°35'0 0.0
2017-Oct-20 04:01N 57°43' E 010°35'0 0.0
2017-Oct-20 03:29N 57°43' E 010°35'0 0.0
2017-Oct-20 03:00N 57°43' E 010°35'0 0.0
2017-Oct-20 02:30N 57°43' E 010°35'0 0.0
2017-Oct-20 02:00N 57°43' E 010°35'0 0.0
2017-Oct-20 01:28N 57°43' E 010°35'0 0.0
2017-Oct-20 01:00N 57°43' E 010°35'0 0.0
2017-Oct-20 00:30N 57°43' E 010°35'0 0.0
2017-Oct-20 00:00N 57°43' E 010°35'0 0.0
2017-Oct-19 23:31N 57°43' E 010°35'0 0.0
2017-Oct-19 23:00N 57°43' E 010°35'0 0.0
2017-Oct-19 22:29N 57°43' E 010°35'0 0.0
2017-Oct-19 22:00N 57°43' E 010°35'0 0.0
2017-Oct-19 21:30N 57°43' E 010°35'0 0.0
2017-Oct-19 21:00N 57°43' E 010°35'0 0.0
2017-Oct-19 20:29N 57°43' E 010°35'0 0.0
2017-Oct-19 20:00N 57°43' E 010°35'0 0.0
2017-Oct-19 19:31N 57°43' E 010°35'0 0.0
2017-Oct-19 19:00N 57°43' E 010°35'0 0.0
2017-Oct-19 18:30N 57°43' E 010°35'0 0.0
2017-Oct-19 18:00N 57°43' E 010°35'0 0.0
2017-Oct-19 17:29N 57°43' E 010°35'0 0.0
2017-Oct-19 16:21N 57°43' E 010°35'0 0.0
2017-Oct-19 15:38N 57°43' E 010°35'0 0.0
2017-Oct-19 15:25N 57°43' E 010°35'0 0.0
2017-Oct-19 14:17N 57°43' E 010°35'0 0.7
2017-Oct-19 14:00N 57°43' E 010°35'0 0.4
2017-Oct-19 13:30N 57°43' E 010°35'0 0.0
2017-Oct-19 12:43N 57°43' E 010°35'0 0.0
2017-Oct-19 12:29N 57°43' E 010°35'0 0.0
2017-Oct-19 11:59N 57°43' E 010°35'0 0.0
2017-Oct-19 11:28N 57°43' E 010°35'0 0.0
2017-Oct-19 10:59N 57°43' E 010°35'0 0.0
2017-Oct-19 10:30N 57°43' E 010°35'0 0.0
2017-Oct-19 10:00N 57°43' E 010°35'0 0.0
2017-Oct-19 09:27N 57°43' E 010°35'0 0.0
2017-Oct-19 08:50N 57°43' E 010°35'0 0.0
2017-Oct-19 08:27N 57°43' E 010°35'0 0.0
2017-Oct-19 07:55N 57°43' E 010°35'0 0.0
2017-Oct-19 07:25N 57°43' E 010°35'0 0.0
2017-Oct-19 06:58N 57°43' E 010°35'0 0.0
2017-Oct-19 06:30N 57°43' E 010°35'0 0.0
2017-Oct-19 06:00N 57°43' E 010°35'0 0.0
2017-Oct-19 05:30N 57°43' E 010°35'0 0.0
2017-Oct-19 04:59N 57°43' E 010°35'0 0.0
2017-Oct-19 04:29N 57°43' E 010°35'0 0.0
2017-Oct-19 04:00N 57°43' E 010°35'0 0.0
2017-Oct-19 03:29N 57°43' E 010°35'0 0.0
2017-Oct-19 03:00N 57°43' E 010°35'0 0.0
2017-Oct-19 02:30N 57°43' E 010°35'0 0.0
2017-Oct-19 02:00N 57°43' E 010°35'0 0.0
2017-Oct-19 01:30N 57°43' E 010°35'0 0.0
2017-Oct-19 01:00N 57°43' E 010°35'0 0.0
2017-Oct-19 00:31N 57°43' E 010°35'0 0.0
2017-Oct-18 23:59N 57°43' E 010°35'0 0.0
2017-Oct-18 23:09N 57°43' E 010°35'0 0.0
2017-Oct-18 23:01N 57°43' E 010°35'0 0.0
2017-Oct-18 22:17N 57°43' E 010°35'0 0.0
2017-Oct-18 22:00N 57°43' E 010°35'0 0.0
2017-Oct-18 21:29N 57°43' E 010°35'0 0.0
2017-Oct-18 21:01N 57°43' E 010°35'0 0.0
2017-Oct-18 20:31N 57°43' E 010°35'0 0.0
2017-Oct-18 20:00N 57°43' E 010°35'0 0.0
2017-Oct-18 19:21N 57°43' E 010°35'0 0.0
2017-Oct-18 18:58N 57°43' E 010°35'0 0.0
2017-Oct-18 18:30N 57°43' E 010°35'0 0.0
2017-Oct-18 18:01N 57°43' E 010°35'0 0.0
2017-Oct-18 17:30N 57°43' E 010°35'0 0.0
2017-Oct-18 17:01N 57°43' E 010°35'0 0.0
2017-Oct-18 16:31N 57°43' E 010°35'0 0.0
2017-Oct-18 16:00N 57°43' E 010°35'0 0.0
2017-Oct-18 15:30N 57°43' E 010°35'0 0.0
2017-Oct-18 15:00N 57°43' E 010°35'0 0.0
2017-Oct-18 13:59N 57°43' E 010°35'0 0.0
2017-Oct-18 13:30N 57°43' E 010°35'0 0.0
2017-Oct-18 12:59N 57°43' E 010°35'0 0.0
2017-Oct-18 12:30N 57°43' E 010°35'  
Track history (hours):
 
Tides and Currents Weather Stations Pressure Air Temp Water Temp Dewpoint Dewpoint Depression Visibility Wind Speed Wind Dir Waves Ship Positions

S 386 Casilo

Last reported at 2017-Oct-22 22:35 UTC. Time now 2017-Oct-22 23:11 UTC.
Position N 58°36' E 010°29'.

Length 24 m.

Type: Fishing. MMSI: 219948000.

Date/timePositionNaut miles runAvg speedWind from/ knotsBaromVisibWave heightAir tempDewpointWater temp
2017-Oct-22 22:35N 58°36' E 010°29'0 6.2
2017-Oct-22 22:30N 58°36' E 010°29'3 6.2
2017-Oct-22 22:00N 58°39' E 010°26'3 5.9
2017-Oct-22 21:30N 58°41' E 010°22'3 5.4
2017-Oct-22 21:00N 58°43' E 010°19'3 5.3
2017-Oct-22 20:31N 58°45' E 010°16'1 1.9
2017-Oct-22 19:52N 58°45' E 010°18'0 0.8
2017-Oct-22 19:30N 58°45' E 010°18'1 1.9
2017-Oct-22 19:00N 58°44' E 010°19'1 2.1
2017-Oct-22 18:30N 58°43' E 010°20'1 2.1
2017-Oct-22 18:00N 58°42' E 010°21'1 2.0
2017-Oct-22 17:30N 58°41' E 010°21'1 2.1
2017-Oct-22 17:00N 58°40' E 010°22'1 2.1
2017-Oct-22 16:30N 58°39' E 010°23'1 2.1
2017-Oct-22 16:00N 58°38' E 010°24'1 2.1
2017-Oct-22 15:30N 58°37' E 010°25'1 2.0
2017-Oct-22 14:58N 58°36' E 010°26'1 2.0
2017-Oct-22 14:23N 58°35' E 010°27'1 2.0
2017-Oct-22 13:49N 58°34' E 010°29'1 2.0
2017-Oct-22 13:20N 58°34' E 010°30'1 2.0
2017-Oct-22 12:55N 58°33' E 010°30'2 2.4
2017-Oct-22 12:14N 58°32' E 010°32'4 4.0
2017-Oct-22 11:14N 58°35' E 010°28'2 6.7
2017-Oct-22 10:57N 58°36' E 010°25'3 6.8
2017-Oct-22 10:30N 58°38' E 010°21'4 6.9
2017-Oct-22 09:59N 58°41' E 010°17'3 7.0
2017-Oct-22 09:30N 58°43' E 010°12'3 6.8
2017-Oct-22 09:00N 58°46' E 010°09'3 6.7
2017-Oct-22 08:30N 58°49' E 010°05'2 3.9
2017-Oct-22 08:00N 58°51' E 010°03'1 1.9
2017-Oct-22 07:30N 58°50' E 010°05'1 1.2
2017-Oct-22 07:00N 58°50' E 010°06'1 1.9
2017-Oct-22 06:30N 58°49' E 010°07'1 1.9
2017-Oct-22 06:00N 58°49' E 010°09'1 1.9
2017-Oct-22 05:30N 58°48' E 010°10'1 1.9
2017-Oct-22 05:00N 58°47' E 010°11'1 1.9
2017-Oct-22 04:30N 58°47' E 010°12'1 2.1
2017-Oct-22 04:00N 58°46' E 010°14'1 2.2
2017-Oct-22 03:30N 58°45' E 010°16'1 2.2
2017-Oct-22 03:00N 58°45' E 010°17'1 2.2
2017-Oct-22 02:30N 58°44' E 010°19'1 2.2
2017-Oct-22 02:00N 58°43' E 010°19'1 3.0
2017-Oct-22 01:30N 58°41' E 010°21'1 1.9
2017-Oct-22 01:00N 58°42' E 010°19'3 6.8
2017-Oct-22 00:30N 58°39' E 010°16'54 1.9
2017-Oct-20 20:19N 57°47' E 010°45'3 8.0
2017-Oct-20 20:00N 57°44' E 010°45'4 8.6
2017-Oct-20 19:29N 57°43' E 010°37'1 1.1
2017-Oct-20 18:47N 57°43' E 010°36'0 0.0
2017-Oct-20 18:27N 57°43' E 010°36'0 0.1
2017-Oct-20 18:00N 57°43' E 010°36'0 0.1
2017-Oct-20 15:32N 57°43' E 010°35'0 0.0
2017-Oct-20 15:22N 57°43' E 010°35'0 0.0
2017-Oct-20 14:54N 57°43' E 010°35'0 0.0
2017-Oct-20 14:30N 57°43' E 010°35'0 0.0
2017-Oct-20 13:21N 57°43' E 010°35'0 0.0
2017-Oct-20 12:59N 57°43' E 010°35'0 0.0
2017-Oct-20 12:26N 57°43' E 010°35'0 0.0
2017-Oct-20 11:32N 57°43' E 010°35'0 0.0
2017-Oct-20 11:29N 57°43' E 010°35'0 0.0
2017-Oct-20 10:59N 57°43' E 010°35'0 0.0
2017-Oct-20 10:30N 57°43' E 010°35'0 0.0
2017-Oct-20 10:00N 57°43' E 010°35'0 0.0
2017-Oct-20 09:30N 57°43' E 010°35'0 0.0
2017-Oct-20 08:44N 57°43' E 010°35'0 0.0
2017-Oct-20 08:30N 57°43' E 010°35'0 0.0
2017-Oct-20 08:00N 57°43' E 010°35'0 0.0
2017-Oct-20 07:30N 57°43' E 010°35'0 0.0
2017-Oct-20 06:57N 57°43' E 010°35'0 0.0
2017-Oct-20 06:29N 57°43' E 010°35'0 0.0
2017-Oct-20 05:55N 57°43' E 010°35'0 0.0
2017-Oct-20 05:29N 57°43' E 010°35'0 0.0
2017-Oct-20 04:58N 57°43' E 010°35'0 0.0
2017-Oct-20 04:30N 57°43' E 010°35'0 0.0
2017-Oct-20 04:01N 57°43' E 010°35'0 0.0
2017-Oct-20 03:29N 57°43' E 010°35'0 0.0
2017-Oct-20 03:00N 57°43' E 010°35'0 0.0
2017-Oct-20 02:30N 57°43' E 010°35'0 0.0
2017-Oct-20 02:00N 57°43' E 010°35'0 0.0
2017-Oct-20 01:28N 57°43' E 010°35'0 0.0
2017-Oct-20 01:00N 57°43' E 010°35'0 0.0
2017-Oct-20 00:30N 57°43' E 010°35'0 0.0
2017-Oct-20 00:00N 57°43' E 010°35'0 0.0
2017-Oct-19 23:31N 57°43' E 010°35'0 0.0
2017-Oct-19 23:00N 57°43' E 010°35'0 0.0
2017-Oct-19 22:29N 57°43' E 010°35'0 0.0
2017-Oct-19 22:00N 57°43' E 010°35'0 0.0
2017-Oct-19 21:30N 57°43' E 010°35'0 0.0
2017-Oct-19 21:00N 57°43' E 010°35'0 0.0
2017-Oct-19 20:29N 57°43' E 010°35'0 0.0
2017-Oct-19 20:00N 57°43' E 010°35'0 0.0
2017-Oct-19 19:31N 57°43' E 010°35'0 0.0
2017-Oct-19 19:00N 57°43' E 010°35'0 0.0
2017-Oct-19 18:30N 57°43' E 010°35'0 0.0
2017-Oct-19 18:00N 57°43' E 010°35'0 0.0
2017-Oct-19 17:29N 57°43' E 010°35'0 0.0
2017-Oct-19 16:21N 57°43' E 010°35'0 0.0
2017-Oct-19 15:38N 57°43' E 010°35'0 0.0
2017-Oct-19 15:25N 57°43' E 010°35'0 0.0
2017-Oct-19 14:17N 57°43' E 010°35'0 0.7
2017-Oct-19 14:00N 57°43' E 010°35'0 0.4
2017-Oct-19 13:30N 57°43' E 010°35'0 0.0
2017-Oct-19 12:43N 57°43' E 010°35'0 0.0
2017-Oct-19 12:29N 57°43' E 010°35'0 0.0
2017-Oct-19 11:59N 57°43' E 010°35'0 0.0
2017-Oct-19 11:28N 57°43' E 010°35'0 0.0
2017-Oct-19 10:59N 57°43' E 010°35'0 0.0
2017-Oct-19 10:30N 57°43' E 010°35'0 0.0
2017-Oct-19 10:00N 57°43' E 010°35'0 0.0
2017-Oct-19 09:27N 57°43' E 010°35'0 0.0
2017-Oct-19 08:50N 57°43' E 010°35'0 0.0
2017-Oct-19 08:27N 57°43' E 010°35'0 0.0
2017-Oct-19 07:55N 57°43' E 010°35'0 0.0
2017-Oct-19 07:25N 57°43' E 010°35'0 0.0
2017-Oct-19 06:58N 57°43' E 010°35'0 0.0
2017-Oct-19 06:30N 57°43' E 010°35'0 0.0
2017-Oct-19 06:00N 57°43' E 010°35'0 0.0
2017-Oct-19 05:30N 57°43' E 010°35'0 0.0
2017-Oct-19 04:59N 57°43' E 010°35'0 0.0
2017-Oct-19 04:29N 57°43' E 010°35'0 0.0
2017-Oct-19 04:00N 57°43' E 010°35'0 0.0
2017-Oct-19 03:29N 57°43' E 010°35'0 0.0
2017-Oct-19 03:00N 57°43' E 010°35'0 0.0
2017-Oct-19 02:30N 57°43' E 010°35'0 0.0
2017-Oct-19 02:00N 57°43' E 010°35'0 0.0
2017-Oct-19 01:30N 57°43' E 010°35'0 0.0
2017-Oct-19 01:00N 57°43' E 010°35'0 0.0
2017-Oct-19 00:31N 57°43' E 010°35'0 0.0
2017-Oct-18 23:59N 57°43' E 010°35'0 0.0
2017-Oct-18 23:09N 57°43' E 010°35'0 0.0
2017-Oct-18 23:01N 57°43' E 010°35'0 0.0
2017-Oct-18 22:17N 57°43' E 010°35'0 0.0
2017-Oct-18 22:00N 57°43' E 010°35'0 0.0
2017-Oct-18 21:29N 57°43' E 010°35'0 0.0
2017-Oct-18 21:01N 57°43' E 010°35'0 0.0
2017-Oct-18 20:31N 57°43' E 010°35'0 0.0
2017-Oct-18 20:00N 57°43' E 010°35'0 0.0
2017-Oct-18 19:21N 57°43' E 010°35'0 0.0
2017-Oct-18 18:58N 57°43' E 010°35'0 0.0
2017-Oct-18 18:30N 57°43' E 010°35'0 0.0
2017-Oct-18 18:01N 57°43' E 010°35'0 0.0
2017-Oct-18 17:30N 57°43' E 010°35'0 0.0
2017-Oct-18 17:01N 57°43' E 010°35'0 0.0
2017-Oct-18 16:31N 57°43' E 010°35'0 0.0
2017-Oct-18 16:00N 57°43' E 010°35'0 0.0
2017-Oct-18 15:30N 57°43' E 010°35'0 0.0
2017-Oct-18 15:00N 57°43' E 010°35'0 0.0
2017-Oct-18 13:59N 57°43' E 010°35'0 0.0
2017-Oct-18 13:30N 57°43' E 010°35'0 0.0
2017-Oct-18 12:59N 57°43' E 010°35'0 0.0
2017-Oct-18 12:30N 57°43' E 010°35'  

Dump ship's entire track history